Terminal Aerodrome Forecast
Issued by NWS Wilmington, OH

Current Version | Previous Version | Graphics & Text | Print | Product List | Glossary On
Versions: 1 2 3 4 5 6 7 8 9 10 11 12 13 14 15 16 17 18 19 20 21 22 23 24 25 26 27
000
FTUS41 KILN 192300
TAFDAY
TAF
KDAY 192334Z 2000/2024 23008KT P6SM VCTS BKN040CB
      TEMPO 2001/2004 3SM -TSRA BR OVC035CB
     FM200400 21006KT P6SM SCT040
     FM201000 21005KT 4SM BR FEW015
     FM201400 25007KT P6SM SCT035
     FM201700 28011G18KT P6SM SCT040=

USA.gov is the U.S. government's official web portal to all federal, state and local government web resources and services.